Main page
METAR-TAF:

METAR-TAF

Airports :

Termez Airport

Termez, Uzbekistan

latitude: 37-14N, longitude: 067-16E, elevation: 302 m

Current weather observation

The report was made 38 minutes ago, at 13:00 UTC
Wind 6 kt from the West
Temperature 36°C
Humidity 18%
Pressure 1005 hPa
Visibility 10 km or more
no clouds below 1500 m and no cumulonimbus

METAR: UTST 281300Z 28006KT CAVOK 36/08 Q1005 R88/CLRD70 NOSIG

Time: 18:38 (13:38 UTC)

Forecast

The report was made 2 hours and 38 minutes ago, at 11:00 UTC
Forecast valid from 28 at 12 UTC to 29 at 12 UTC
Wind 10 kt from variable directions
Visibility: 6000 m
Scattered clouds at a height of 6000 ft, Cumulonimbus.
Broken clouds at a height of 10000 ft
Temporary
from 28 at 12 UTC to 28 at 23 UTC
Wind 16 kt from the West/Southwest with gusts up to 26 kt
Visibility: 2400 m

TAF: UTST 281100Z 2812/2912 VRB10KT 6000 SCT060CB BKN100 TEMPO 2812/2823 24016G26KT 2400 -DS

Weather observations and forecasts of more than 4000 airports (METAR and TAF reports).

The available stations are represented by yellow and red dots on the map.

Hover mouse over dot to see the name of the station.

Then click to see weather observations and forecasts.

To change the map : click on the green buttons with a black cross to zoom in, on the green button with a dash to zoom out, or on the green arrows for adjacent maps.


METAR-TAF: